Marshall Army Air Field
KFRI : now visible

Airfield :











YOU CAN JOIN US ON...

 
LOGIN :

Register | Disclaimer

   EN    FR    IT 

 









Legend :    VFR   Marginal VFR   IFR   Intensive IFR   Very Intensive IFR
Visi :
Ceiling :
>= 8 km
>= 3000ft
5 to 8 km
1000 to 3000 ft
1500m to 5 km
500 to 1000 ft
800 to 1500m
200 to 500 ft
< 800m
< 200 ft
Symbols :   Thunderstorms  Fog  Heavy snow  Heavy precipitations  Wind > 20 kt






- Airport Elevation : 1065 ft


KFRI - Marshall Army Air Field

CURRENT METAR :
  • 081856Z AUTO 31013G23KT 10SM CLR 30/00 A2978 RMK AO2 SLP076 T03011003

EXPIRED METARs :
  • 081756Z AUTO 32009KT 10SM CLR 30/03 A2978 RMK AO2 SLP076 T02950034 10295 20078 58002
  • 081656Z 30007KT 10SM CLR 28/05 A2980 RMK AO2A SLP083 T02760046

TAF TAF KFRI
Valid from the 08 at 13:00 until the 09 at 19:00 UTC


081300Z 0813/0919 VRB06KT 9000 BR SKC QNH2975INS
BECMG 0817/0818 32010G15KT 9999 NSW FEW180 510062 QNH2980INS
BECMG 0820/0821 34020G25KT 9999 FEW110 510062 QNH2982INS
BECMG 0900/0901 36012KT 9999 FEW045 QNH2990INS
BECMG 0915/0916 33010G15KT 9999 SCT080 510023 QNH3007INS TX23/0818Z TN07/0912Z



MET'MAP, your aeronautical weather chart ! - Copyright ORBIFLY December 2007 - Disclaimer

ORBIFLY MET'MAP TEAM :

Programming & Development : Alexandra Zaïnal
Concept & original design : Baudouin d'Aumeries
Assistance for programming : Marc-Olivier Méhu
Technical & hardware support : Manuel Goepfert

Contact : metmap@orbifly.com




SOURCES & CREDITS :

   NOAA       Earth
Advisory